sensor_id;sensor_type;location;lat;lon;timestamp;pressure;altitude;pressure_sealevel;temperature;humidity
31538;BME280;18147;51.952;6.146;2022-11-13T00:00:22;102686.31;;;5.43;100.00
31538;BME280;18147;51.952;6.146;2022-11-13T00:03:06;102684.31;;;5.61;100.00
31538;BME280;18147;51.952;6.146;2022-11-13T00:06:00;102691.28;;;5.66;100.00
31538;BME280;18147;51.952;6.146;2022-11-13T00:08:45;102687.03;;;5.55;100.00
31538;BME280;18147;51.952;6.146;2022-11-13T00:11:30;102678.19;;;5.56;100.00
31538;BME280;18147;51.952;6.146;2022-11-13T00:14:14;102681.56;;;5.67;100.00
31538;BME280;18147;51.952;6.146;2022-11-13T00:16:58;102675.34;;;5.72;100.00
31538;BME280;18147;51.952;6.146;2022-11-13T00:19:42;102674.41;;;5.78;100.00
31538;BME280;18147;51.952;6.146;2022-11-13T00:22:25;102672.69;;;5.74;100.00
31538;BME280;18147;51.952;6.146;2022-11-13T00:25:10;102667.38;;;5.74;100.00
31538;BME280;18147;51.952;6.146;2022-11-13T00:27:53;102678.97;;;5.65;100.00
31538;BME280;18147;51.952;6.146;2022-11-13T00:30:37;102677.28;;;5.60;100.00
31538;BME280;18147;51.952;6.146;2022-11-13T00:33:21;102672.97;;;5.53;100.00
31538;BME280;18147;51.952;6.146;2022-11-13T00:36:22;102672.22;;;5.43;100.00
31538;BME280;18147;51.952;6.146;2022-11-13T00:39:07;102659.84;;;5.42;100.00
31538;BME280;18147;51.952;6.146;2022-11-13T00:41:52;102653.81;;;5.34;100.00
31538;BME280;18147;51.952;6.146;2022-11-13T00:44:36;102659.06;;;5.35;100.00
31538;BME280;18147;51.952;6.146;2022-11-13T00:47:20;102652.88;;;5.38;100.00
31538;BME280;18147;51.952;6.146;2022-11-13T00:50:04;102650.22;;;5.36;100.00
31538;BME280;18147;51.952;6.146;2022-11-13T00:52:48;102640.59;;;5.31;100.00
31538;BME280;18147;51.952;6.146;2022-11-13T00:55:32;102645.06;;;5.27;100.00
31538;BME280;18147;51.952;6.146;2022-11-13T00:58:16;102647.63;;;5.32;100.00
31538;BME280;18147;51.952;6.146;2022-11-13T01:01:13;102641.50;;;5.30;100.00
31538;BME280;18147;51.952;6.146;2022-11-13T01:03:57;102647.97;;;5.07;100.00
31538;BME280;18147;51.952;6.146;2022-11-13T01:06:43;102651.41;;;5.12;100.00
31538;BME280;18147;51.952;6.146;2022-11-13T01:09:27;102642.66;;;5.06;100.00
31538;BME280;18147;51.952;6.146;2022-11-13T01:12:11;102641.78;;;5.08;100.00
31538;BME280;18147;51.952;6.146;2022-11-13T01:14:56;102638.16;;;5.15;100.00
31538;BME280;18147;51.952;6.146;2022-11-13T01:17:39;102639.88;;;5.19;100.00
31538;BME280;18147;51.952;6.146;2022-11-13T01:20:24;102633.84;;;5.08;100.00
31538;BME280;18147;51.952;6.146;2022-11-13T01:23:08;102642.75;;;5.00;100.00
31538;BME280;18147;51.952;6.146;2022-11-13T01:25:52;102636.56;;;5.02;100.00
31538;BME280;18147;51.952;6.146;2022-11-13T01:28:37;102637.44;;;5.01;100.00
31538;BME280;18147;51.952;6.146;2022-11-13T01:31:25;102632.25;;;4.93;100.00
31538;BME280;18147;51.952;6.146;2022-11-13T01:34:08;102626.94;;;4.95;100.00
31538;BME280;18147;51.952;6.146;2022-11-13T01:36:52;102626.97;;;4.92;100.00
31538;BME280;18147;51.952;6.146;2022-11-13T01:39:37;102624.44;;;4.81;100.00
31538;BME280;18147;51.952;6.146;2022-11-13T01:42:21;102628.97;;;4.70;100.00
31538;BME280;18147;51.952;6.146;2022-11-13T01:48:41;102615.00;;;4.57;100.00
31538;BME280;18147;51.952;6.146;2022-11-13T01:51:39;102613.22;;;4.56;100.00
31538;BME280;18147;51.952;6.146;2022-11-13T01:54:31;102609.69;;;4.62;100.00
31538;BME280;18147;51.952;6.146;2022-11-13T01:57:16;102602.53;;;4.70;100.00
31538;BME280;18147;51.952;6.146;2022-11-13T02:00:05;102602.41;;;4.82;100.00
31538;BME280;18147;51.952;6.146;2022-11-13T02:02:49;102591.81;;;4.84;100.00
31538;BME280;18147;51.952;6.146;2022-11-13T02:05:34;102588.25;;;4.88;100.00
31538;BME280;18147;51.952;6.146;2022-11-13T02:08:17;102586.47;;;4.90;100.00
31538;BME280;18147;51.952;6.146;2022-11-13T02:11:01;102585.47;;;4.99;100.00
31538;BME280;18147;51.952;6.146;2022-11-13T02:13:45;102585.44;;;5.00;100.00
31538;BME280;18147;51.952;6.146;2022-11-13T02:16:32;102586.44;;;4.93;100.00
31538;BME280;18147;51.952;6.146;2022-11-13T02:19:30;102580.16;;;5.00;100.00
31538;BME280;18147;51.952;6.146;2022-11-13T02:22:35;102579.41;;;4.92;100.00
31538;BME280;18147;51.952;6.146;2022-11-13T02:25:24;102576.84;;;4.81;100.00
31538;BME280;18147;51.952;6.146;2022-11-13T02:28:08;102572.44;;;4.82;100.00
31538;BME280;18147;51.952;6.146;2022-11-13T02:30:53;102575.84;;;4.91;100.00
31538;BME280;18147;51.952;6.146;2022-11-13T02:33:37;102574.84;;;5.02;100.00
31538;BME280;18147;51.952;6.146;2022-11-13T02:36:24;102574.84;;;5.02;100.00
31538;BME280;18147;51.952;6.146;2022-11-13T02:39:09;102568.94;;;4.83;100.00
31538;BME280;18147;51.952;6.146;2022-11-13T02:41:54;102572.34;;;4.92;100.00
31538;BME280;18147;51.952;6.146;2022-11-13T02:44:38;102573.09;;;5.04;100.00
31538;BME280;18147;51.952;6.146;2022-11-13T02:47:23;102566.00;;;5.07;100.00
31538;BME280;18147;51.952;6.146;2022-11-13T02:50:07;102556.28;;;5.08;100.00
31538;BME280;18147;51.952;6.146;2022-11-13T02:52:52;102563.34;;;5.07;100.00
31538;BME280;18147;51.952;6.146;2022-11-13T02:55:36;102555.38;;;5.09;100.00
31538;BME280;18147;51.952;6.146;2022-11-13T02:58:19;102557.09;;;5.11;100.00
31538;BME280;18147;51.952;6.146;2022-11-13T03:01:03;102554.47;;;5.13;100.00
31538;BME280;18147;51.952;6.146;2022-11-13T03:03:48;102550.03;;;5.13;100.00
31538;BME280;18147;51.952;6.146;2022-11-13T03:06:32;102557.88;;;5.19;100.00
31538;BME280;18147;51.952;6.146;2022-11-13T03:09:16;102550.72;;;5.29;100.00
31538;BME280;18147;51.952;6.146;2022-11-13T03:12:00;102549.03;;;5.24;100.00
31538;BME280;18147;51.952;6.146;2022-11-13T03:14:44;102548.22;;;5.17;100.00
31538;BME280;18147;51.952;6.146;2022-11-13T03:17:30;102545.66;;;5.12;100.00
31538;BME280;18147;51.952;6.146;2022-11-13T03:20:14;102539.41;;;5.16;100.00
31538;BME280;18147;51.952;6.146;2022-11-13T03:22:58;102543.88;;;5.13;100.00
31538;BME280;18147;51.952;6.146;2022-11-13T03:25:42;102540.38;;;5.12;100.00
31538;BME280;18147;51.952;6.146;2022-11-13T03:28:26;102536.91;;;5.07;100.00
31538;BME280;18147;51.952;6.146;2022-11-13T03:31:11;102541.34;;;5.04;100.00
31538;BME280;18147;51.952;6.146;2022-11-13T03:33:55;102538.84;;;4.91;100.00
31538;BME280;18147;51.952;6.146;2022-11-13T03:36:39;102542.31;;;4.98;100.00
31538;BME280;18147;51.952;6.146;2022-11-13T03:39:23;102541.44;;;4.98;100.00
31538;BME280;18147;51.952;6.146;2022-11-13T03:42:07;102531.75;;;4.98;100.00
31538;BME280;18147;51.952;6.146;2022-11-13T03:44:51;102526.44;;;4.98;100.00
31538;BME280;18147;51.952;6.146;2022-11-13T03:47:35;102529.16;;;4.93;100.00
31538;BME280;18147;51.952;6.146;2022-11-13T03:50:19;102520.53;;;4.78;100.00
31538;BME280;18147;51.952;6.146;2022-11-13T03:53:03;102515.19;;;4.84;100.00
31538;BME280;18147;51.952;6.146;2022-11-13T03:55:47;102516.84;;;4.91;100.00
31538;BME280;18147;51.952;6.146;2022-11-13T03:58:31;102513.31;;;4.90;100.00
31538;BME280;18147;51.952;6.146;2022-11-13T04:01:15;102514.19;;;4.91;100.00
31538;BME280;18147;51.952;6.146;2022-11-13T04:03:59;102511.53;;;4.91;100.00
31538;BME280;18147;51.952;6.146;2022-11-13T04:06:43;102508.91;;;4.91;100.00
31538;BME280;18147;51.952;6.146;2022-11-13T04:09:27;102501.22;;;4.73;100.00
31538;BME280;18147;51.952;6.146;2022-11-13T04:12:11;102507.44;;;4.68;100.00
31538;BME280;18147;51.952;6.146;2022-11-13T04:14:55;102503.88;;;4.73;100.00
31538;BME280;18147;51.952;6.146;2022-11-13T04:17:39;102497.78;;;4.64;100.00
31538;BME280;18147;51.952;6.146;2022-11-13T04:20:23;102497.94;;;4.51;100.00
31538;BME280;18147;51.952;6.146;2022-11-13T04:23:08;102489.97;;;4.55;100.00
31538;BME280;18147;51.952;6.146;2022-11-13T04:25:55;102481.22;;;4.53;100.00
31538;BME280;18147;51.952;6.146;2022-11-13T04:28:39;102484.81;;;4.45;100.00
31538;BME280;18147;51.952;6.146;2022-11-13T04:31:23;102474.41;;;4.31;100.00
31538;BME280;18147;51.952;6.146;2022-11-13T04:34:07;102464.16;;;4.00;100.00
31538;BME280;18147;51.952;6.146;2022-11-13T04:36:51;102467.75;;;3.95;100.00
31538;BME280;18147;51.952;6.146;2022-11-13T04:39:35;102469.50;;;3.94;100.00
31538;BME280;18147;51.952;6.146;2022-11-13T04:42:19;102462.66;;;3.75;100.00
31538;BME280;18147;51.952;6.146;2022-11-13T04:45:23;102460.88;;;3.78;100.00
31538;BME280;18147;51.952;6.146;2022-11-13T04:48:10;102468.81;;;3.77;100.00
31538;BME280;18147;51.952;6.146;2022-11-13T04:50:54;102467.91;;;3.76;100.00
31538;BME280;18147;51.952;6.146;2022-11-13T04:53:38;102463.38;;;3.90;100.00
31538;BME280;18147;51.952;6.146;2022-11-13T04:56:22;102464.44;;;3.71;100.00
31538;BME280;18147;51.952;6.146;2022-11-13T04:59:06;102459.16;;;3.74;100.00
31538;BME280;18147;51.952;6.146;2022-11-13T05:01:51;102458.25;;;3.75;100.00
31538;BME280;18147;51.952;6.146;2022-11-13T05:04:35;102457.31;;;3.84;100.00
31538;BME280;18147;51.952;6.146;2022-11-13T05:07:18;102450.97;;;4.00;100.00
31538;BME280;18147;51.952;6.146;2022-11-13T05:10:03;102452.84;;;3.92;100.00
31538;BME280;18147;51.952;6.146;2022-11-13T05:12:47;102456.38;;;3.88;100.00
31538;BME280;18147;51.952;6.146;2022-11-13T05:15:31;102459.09;;;3.82;100.00
31538;BME280;18147;51.952;6.146;2022-11-13T05:18:15;102456.34;;;3.89;100.00
31538;BME280;18147;51.952;6.146;2022-11-13T05:20:59;102450.13;;;3.98;100.00
31538;BME280;18147;51.952;6.146;2022-11-13T05:23:43;102450.22;;;3.89;100.00
31538;BME280;18147;51.952;6.146;2022-11-13T05:26:27;102449.38;;;3.84;100.00
31538;BME280;18147;51.952;6.146;2022-11-13T05:29:11;102444.97;;;3.84;100.00
31538;BME280;18147;51.952;6.146;2022-11-13T05:31:55;102445.09;;;3.74;100.00
31538;BME280;18147;51.952;6.146;2022-11-13T05:34:39;102446.94;;;3.62;100.00
31538;BME280;18147;51.952;6.146;2022-11-13T05:37:23;102445.28;;;3.52;100.00
31538;BME280;18147;51.952;6.146;2022-11-13T05:40:07;102441.75;;;3.53;100.00
31538;BME280;18147;51.952;6.146;2022-11-13T05:42:53;102439.13;;;3.52;100.00
31538;BME280;18147;51.952;6.146;2022-11-13T05:45:37;102438.28;;;3.47;100.00
31538;BME280;18147;51.952;6.146;2022-11-13T05:48:21;102430.31;;;3.51;100.00
31538;BME280;18147;51.952;6.146;2022-11-13T05:51:12;102433.81;;;3.58;100.00
31538;BME280;18147;51.952;6.146;2022-11-13T05:53:57;102426.75;;;3.58;100.00
31538;BME280;18147;51.952;6.146;2022-11-13T05:56:41;102433.78;;;3.59;100.00
31538;BME280;18147;51.952;6.146;2022-11-13T05:59:25;102424.94;;;3.63;100.00
31538;BME280;18147;51.952;6.146;2022-11-13T06:02:09;102423.25;;;3.56;100.00
31538;BME280;18147;51.952;6.146;2022-11-13T06:04:52;102421.59;;;3.45;100.00
31538;BME280;18147;51.952;6.146;2022-11-13T06:07:37;102416.28;;;3.52;100.00
31538;BME280;18147;51.952;6.146;2022-11-13T06:10:20;102420.69;;;3.46;100.00
31538;BME280;18147;51.952;6.146;2022-11-13T06:13:04;102411.00;;;3.49;100.00
31538;BME280;18147;51.952;6.146;2022-11-13T06:15:48;102417.97;;;3.58;100.00
31538;BME280;18147;51.952;6.146;2022-11-13T06:18:33;102416.25;;;3.54;100.00
31538;BME280;18147;51.952;6.146;2022-11-13T06:21:19;102405.63;;;3.60;100.00
31538;BME280;18147;51.952;6.146;2022-11-13T06:24:05;102412.72;;;3.55;100.00
31538;BME280;18147;51.952;6.146;2022-11-13T06:26:49;102414.53;;;3.50;100.00
31538;BME280;18147;51.952;6.146;2022-11-13T06:29:33;102412.81;;;3.47;100.00
31538;BME280;18147;51.952;6.146;2022-11-13T06:32:17;102410.22;;;3.40;100.00
31538;BME280;18147;51.952;6.146;2022-11-13T06:35:01;102412.81;;;3.41;100.00
31538;BME280;18147;51.952;6.146;2022-11-13T06:37:45;102417.19;;;3.45;100.00
31538;BME280;18147;51.952;6.146;2022-11-13T06:40:29;102413.81;;;3.32;100.00
31538;BME280;18147;51.952;6.146;2022-11-13T06:43:13;102414.69;;;3.31;100.00
31538;BME280;18147;51.952;6.146;2022-11-13T06:45:57;102406.78;;;3.31;100.00
31538;BME280;18147;51.952;6.146;2022-11-13T06:48:42;102410.31;;;3.26;100.00
31538;BME280;18147;51.952;6.146;2022-11-13T06:51:28;102411.97;;;3.42;100.00
31538;BME280;18147;51.952;6.146;2022-11-13T06:54:13;102408.44;;;3.43;100.00
31538;BME280;18147;51.952;6.146;2022-11-13T06:56:56;102414.66;;;3.33;100.00
31538;BME280;18147;51.952;6.146;2022-11-13T06:59:41;102412.91;;;3.36;100.00
31538;BME280;18147;51.952;6.146;2022-11-13T07:02:26;102418.22;;;3.29;100.00
31538;BME280;18147;51.952;6.146;2022-11-13T07:05:10;102410.47;;;3.07;100.00
31538;BME280;18147;51.952;6.146;2022-11-13T07:07:54;102410.41;;;3.14;100.00
31538;BME280;18147;51.952;6.146;2022-11-13T07:10:38;102412.03;;;3.30;100.00
31538;BME280;18147;51.952;6.146;2022-11-13T07:13:23;102406.69;;;3.42;100.00
31538;BME280;18147;51.952;6.146;2022-11-13T07:16:09;102411.97;;;3.42;100.00
31538;BME280;18147;51.952;6.146;2022-11-13T07:18:53;102411.09;;;3.40;100.00
31538;BME280;18147;51.952;6.146;2022-11-13T07:21:37;102416.38;;;3.38;100.00
31538;BME280;18147;51.952;6.146;2022-11-13T07:24:21;102414.59;;;3.42;100.00
31538;BME280;18147;51.952;6.146;2022-11-13T07:27:05;102416.28;;;3.46;100.00
31538;BME280;18147;51.952;6.146;2022-11-13T07:29:49;102405.72;;;3.52;100.00
31538;BME280;18147;51.952;6.146;2022-11-13T07:32:33;102407.44;;;3.58;100.00
31538;BME280;18147;51.952;6.146;2022-11-13T07:35:18;102407.47;;;3.50;100.00
31538;BME280;18147;51.952;6.146;2022-11-13T07:38:02;102417.06;;;3.62;100.00
31538;BME280;18147;51.952;6.146;2022-11-13T07:40:46;102409.88;;;3.75;100.00
31538;BME280;18147;51.952;6.146;2022-11-13T07:43:30;102406.31;;;3.82;100.00
31538;BME280;18147;51.952;6.146;2022-11-13T07:46:14;102403.69;;;3.79;100.00
31538;BME280;18147;51.952;6.146;2022-11-13T07:48:58;102411.66;;;3.74;100.00
31538;BME280;18147;51.952;6.146;2022-11-13T07:51:42;102398.38;;;3.83;100.00
31538;BME280;18147;51.952;6.146;2022-11-13T07:54:26;102399.16;;;3.93;100.00
31538;BME280;18147;51.952;6.146;2022-11-13T07:57:10;102394.66;;;4.03;100.00
31538;BME280;18147;51.952;6.146;2022-11-13T07:59:54;102391.94;;;4.09;100.00
31538;BME280;18147;51.952;6.146;2022-11-13T08:02:38;102378.59;;;4.21;100.00
31538;BME280;18147;51.952;6.146;2022-11-13T08:05:22;102383.88;;;4.21;100.00
31538;BME280;18147;51.952;6.146;2022-11-13T08:08:07;102382.00;;;4.32;100.00
31538;BME280;18147;51.952;6.146;2022-11-13T08:10:51;102380.16;;;4.37;100.00
31538;BME280;18147;51.952;6.146;2022-11-13T08:13:35;102383.72;;;4.33;100.00
31538;BME280;18147;51.952;6.146;2022-11-13T08:16:19;102382.63;;;4.50;100.00
31538;BME280;18147;51.952;6.146;2022-11-13T08:19:06;102376.25;;;4.64;100.00
31538;BME280;18147;51.952;6.146;2022-11-13T08:21:50;102377.03;;;4.73;100.00
31538;BME280;18147;51.952;6.146;2022-11-13T08:24:34;102377.84;;;4.76;100.00
31538;BME280;18147;51.952;6.146;2022-11-13T08:27:20;102374.16;;;4.86;100.00
31538;BME280;18147;51.952;6.146;2022-11-13T08:30:04;102374.03;;;4.96;100.00
31538;BME280;18147;51.952;6.146;2022-11-13T08:32:49;102368.47;;;5.14;100.00
31538;BME280;18147;51.952;6.146;2022-11-13T08:35:33;102363.84;;;5.28;100.00
31538;BME280;18147;51.952;6.146;2022-11-13T08:38:17;102365.41;;;5.37;100.00
31538;BME280;18147;51.952;6.146;2022-11-13T08:41:03;102359.78;;;5.57;100.00
31538;BME280;18147;51.952;6.146;2022-11-13T08:43:48;102362.16;;;5.72;100.00
31538;BME280;18147;51.952;6.146;2022-11-13T08:46:32;102351.06;;;6.00;100.00
31538;BME280;18147;51.952;6.146;2022-11-13T08:49:16;102350.94;;;6.06;100.00
31538;BME280;18147;51.952;6.146;2022-11-13T08:52:00;102350.56;;;6.24;100.00
31538;BME280;18147;51.952;6.146;2022-11-13T08:54:44;102343.97;;;6.43;100.00
31538;BME280;18147;51.952;6.146;2022-11-13T08:57:28;102336.41;;;6.65;100.00
31538;BME280;18147;51.952;6.146;2022-11-13T09:00:13;102351.19;;;6.75;100.00
31538;BME280;18147;51.952;6.146;2022-11-13T09:02:58;102330.47;;;6.93;100.00
31538;BME280;18147;51.952;6.146;2022-11-13T09:05:43;102336.16;;;7.12;100.00
31538;BME280;18147;51.952;6.146;2022-11-13T09:08:29;102337.72;;;7.20;100.00
31538;BME280;18147;51.952;6.146;2022-11-13T09:11:13;102334.50;;;7.43;100.00
31538;BME280;18147;51.952;6.146;2022-11-13T09:13:57;102336.34;;;7.40;100.00
31538;BME280;18147;51.952;6.146;2022-11-13T09:16:41;102332.72;;;7.42;100.00
31538;BME280;18147;51.952;6.146;2022-11-13T09:19:25;102327.13;;;7.55;100.00
31538;BME280;18147;51.952;6.146;2022-11-13T09:22:10;102322.38;;;7.66;100.00
31538;BME280;18147;51.952;6.146;2022-11-13T09:24:54;102327.56;;;7.70;100.00
31538;BME280;18147;51.952;6.146;2022-11-13T09:27:38;102322.13;;;7.75;100.00
31538;BME280;18147;51.952;6.146;2022-11-13T09:30:23;102319.25;;;7.83;100.00
31538;BME280;18147;51.952;6.146;2022-11-13T09:33:09;102314.47;;;7.95;100.00
31538;BME280;18147;51.952;6.146;2022-11-13T09:35:57;102318.53;;;8.07;100.00
31538;BME280;18147;51.952;6.146;2022-11-13T09:38:42;102316.41;;;8.20;100.00
31538;BME280;18147;51.952;6.146;2022-11-13T09:41:48;102322.91;;;8.41;100.00
31538;BME280;18147;51.952;6.146;2022-11-13T09:44:41;102322.00;;;8.70;100.00
31538;BME280;18147;51.952;6.146;2022-11-13T09:47:30;102318.00;;;8.83;100.00
31538;BME280;18147;51.952;6.146;2022-11-13T09:50:25;102315.19;;;8.88;100.00
31538;BME280;18147;51.952;6.146;2022-11-13T09:53:11;102312.97;;;9.02;100.00
31538;BME280;18147;51.952;6.146;2022-11-13T09:56:06;102314.31;;;9.15;100.00
31538;BME280;18147;51.952;6.146;2022-11-13T09:59:18;102309.22;;;9.34;100.00
31538;BME280;18147;51.952;6.146;2022-11-13T10:08:26;102301.00;;;9.90;100.00
31538;BME280;18147;51.952;6.146;2022-11-13T10:14:07;102296.28;;;10.20;93.40
31538;BME280;18147;51.952;6.146;2022-11-13T10:16:56;102292.06;;;10.38;93.14
31538;BME280;18147;51.952;6.146;2022-11-13T10:20:10;102287.84;;;10.32;93.59
31538;BME280;18147;51.952;6.146;2022-11-13T10:23:21;102290.50;;;10.32;95.92
31538;BME280;18147;51.952;6.146;2022-11-13T10:26:16;102279.31;;;10.46;92.71
31538;BME280;18147;51.952;6.146;2022-11-13T10:29:08;102281.03;;;10.47;92.43
31538;BME280;18147;51.952;6.146;2022-11-13T10:31:53;102276.56;;;10.48;91.94
31538;BME280;18147;51.952;6.146;2022-11-13T10:34:38;102273.34;;;10.61;93.05
31538;BME280;18147;51.952;6.146;2022-11-13T10:40:30;102276.69;;;10.88;98.16
31538;BME280;18147;51.952;6.146;2022-11-13T10:46:01;102260.84;;;11.06;96.25
31538;BME280;18147;51.952;6.146;2022-11-13T10:48:45;102253.16;;;11.19;94.51
31538;BME280;18147;51.952;6.146;2022-11-13T10:51:31;102253.50;;;11.31;89.27
31538;BME280;18147;51.952;6.146;2022-11-13T10:54:23;102248.94;;;11.33;93.08
31538;BME280;18147;51.952;6.146;2022-11-13T10:57:28;102243.88;;;11.27;91.91
31538;BME280;18147;51.952;6.146;2022-11-13T11:00:34;102240.41;;;11.46;90.07
31538;BME280;18147;51.952;6.146;2022-11-13T11:03:21;102242.44;;;11.59;87.52
31538;BME280;18147;51.952;6.146;2022-11-13T11:06:05;102254.44;;;11.70;85.09
31538;BME280;18147;51.952;6.146;2022-11-13T11:08:50;102233.22;;;11.66;86.33
31538;BME280;18147;51.952;6.146;2022-11-13T11:11:34;102243.97;;;11.85;85.04
31538;BME280;18147;51.952;6.146;2022-11-13T11:14:41;102228.72;;;11.87;83.72
31538;BME280;18147;51.952;6.146;2022-11-13T11:17:45;102233.88;;;11.92;84.90
31538;BME280;18147;51.952;6.146;2022-11-13T11:23:48;102232.97;;;12.29;81.72
31538;BME280;18147;51.952;6.146;2022-11-13T11:26:37;102230.47;;;12.26;85.48
31538;BME280;18147;51.952;6.146;2022-11-13T11:29:35;102224.72;;;12.34;87.32
31538;BME280;18147;51.952;6.146;2022-11-13T11:35:30;102212.94;;;12.38;84.60
31538;BME280;18147;51.952;6.146;2022-11-13T11:41:44;102203.78;;;12.61;80.27
31538;BME280;18147;51.952;6.146;2022-11-13T11:44:55;102204.97;;;12.73;81.32
31538;BME280;18147;51.952;6.146;2022-11-13T11:47:41;102198.28;;;12.81;82.32
31538;BME280;18147;51.952;6.146;2022-11-13T11:57:05;102188.66;;;12.94;81.44
31538;BME280;18147;51.952;6.146;2022-11-13T12:00:12;102186.94;;;13.28;76.15
31538;BME280;18147;51.952;6.146;2022-11-13T12:12:48;102163.34;;;13.35;75.30
31538;BME280;18147;51.952;6.146;2022-11-13T12:15:54;102155.03;;;13.41;75.57
31538;BME280;18147;51.952;6.146;2022-11-13T12:27:48;102138.53;;;13.64;70.31
31538;BME280;18147;51.952;6.146;2022-11-13T12:36:24;102126.78;;;13.67;79.33
31538;BME280;18147;51.952;6.146;2022-11-13T12:42:55;102116.06;;;13.83;73.58
31538;BME280;18147;51.952;6.146;2022-11-13T12:45:49;102106.78;;;13.88;73.22
31538;BME280;18147;51.952;6.146;2022-11-13T12:48:40;102101.53;;;13.87;75.61
31538;BME280;18147;51.952;6.146;2022-11-13T12:51:25;102109.88;;;14.12;73.43
31538;BME280;18147;51.952;6.146;2022-11-13T12:54:36;102106.34;;;14.12;73.45
31538;BME280;18147;51.952;6.146;2022-11-13T12:57:22;102101.59;;;14.01;74.68
31538;BME280;18147;51.952;6.146;2022-11-13T13:00:21;102093.28;;;14.06;72.26
31538;BME280;18147;51.952;6.146;2022-11-13T13:06:19;102085.16;;;14.07;69.38
31538;BME280;18147;51.952;6.146;2022-11-13T13:12:50;102073.06;;;14.30;70.90
31538;BME280;18147;51.952;6.146;2022-11-13T13:15:42;102073.28;;;14.11;72.34
31538;BME280;18147;51.952;6.146;2022-11-13T13:18:34;102063.91;;;14.18;69.52
31538;BME280;18147;51.952;6.146;2022-11-13T13:21:19;102057.53;;;14.35;70.84
31538;BME280;18147;51.952;6.146;2022-11-13T13:24:29;102055.44;;;14.26;74.61
31538;BME280;18147;51.952;6.146;2022-11-13T13:27:24;102039.94;;;14.15;74.36
31538;BME280;18147;51.952;6.146;2022-11-13T13:30:16;102037.50;;;14.27;74.72
31538;BME280;18147;51.952;6.146;2022-11-13T13:39:31;102011.56;;;14.41;70.03
31538;BME280;18147;51.952;6.146;2022-11-13T13:48:47;101995.63;;;14.24;81.18
31538;BME280;18147;51.952;6.146;2022-11-13T13:54:26;101998.25;;;14.10;85.58
31538;BME280;18147;51.952;6.146;2022-11-13T13:57:13;101999.03;;;14.12;85.60
31538;BME280;18147;51.952;6.146;2022-11-13T13:59:59;101998.78;;;14.00;88.58
31538;BME280;18147;51.952;6.146;2022-11-13T14:02:49;101989.34;;;14.09;87.18
31538;BME280;18147;51.952;6.146;2022-11-13T14:05:35;101993.38;;;14.02;87.96
31538;BME280;18147;51.952;6.146;2022-11-13T14:08:22;101988.97;;;14.01;88.60
31538;BME280;18147;51.952;6.146;2022-11-13T14:11:20;101984.78;;;13.81;90.81
31538;BME280;18147;51.952;6.146;2022-11-13T14:14:17;101993.63;;;13.97;88.42
31538;BME280;18147;51.952;6.146;2022-11-13T14:17:02;102000.28;;;13.90;88.53
31538;BME280;18147;51.952;6.146;2022-11-13T14:19:54;101994.16;;;13.88;87.72
31538;BME280;18147;51.952;6.146;2022-11-13T14:22:39;101989.06;;;13.84;89.22
31538;BME280;18147;51.952;6.146;2022-11-13T14:25:26;101983.31;;;13.76;90.77
31538;BME280;18147;51.952;6.146;2022-11-13T14:28:16;101980.09;;;13.69;91.37
31538;BME280;18147;51.952;6.146;2022-11-13T14:31:02;101977.03;;;13.61;93.60
31538;BME280;18147;51.952;6.146;2022-11-13T14:33:48;101984.19;;;13.60;94.22
31538;BME280;18147;51.952;6.146;2022-11-13T14:36:33;101975.38;;;13.58;94.36
31538;BME280;18147;51.952;6.146;2022-11-13T14:39:27;101969.75;;;13.63;94.92
31538;BME280;18147;51.952;6.146;2022-11-13T14:42:16;101968.69;;;13.65;95.44
31538;BME280;18147;51.952;6.146;2022-11-13T14:45:13;101972.97;;;13.38;97.64
31538;BME280;18147;51.952;6.146;2022-11-13T14:48:24;101965.38;;;13.30;97.84
31538;BME280;18147;51.952;6.146;2022-11-13T14:51:27;101968.81;;;13.16;99.45
31538;BME280;18147;51.952;6.146;2022-11-13T14:54:34;101967.75;;;13.03;100.00
31538;BME280;18147;51.952;6.146;2022-11-13T14:57:19;101967.03;;;12.84;100.00
31538;BME280;18147;51.952;6.146;2022-11-13T15:00:11;101972.41;;;12.84;100.00
31538;BME280;18147;51.952;6.146;2022-11-13T15:02:56;101978.25;;;12.75;100.00
31538;BME280;18147;51.952;6.146;2022-11-13T15:05:40;101973.47;;;12.64;100.00
31538;BME280;18147;51.952;6.146;2022-11-13T15:08:25;101975.91;;;12.35;100.00
31538;BME280;18147;51.952;6.146;2022-11-13T15:11:12;101975.03;;;12.35;100.00
31538;BME280;18147;51.952;6.146;2022-11-13T15:13:57;101971.47;;;12.34;100.00
31538;BME280;18147;51.952;6.146;2022-11-13T15:16:42;101971.72;;;12.30;100.00
31538;BME280;18147;51.952;6.146;2022-11-13T15:19:32;101970.22;;;12.41;100.00
31538;BME280;18147;51.952;6.146;2022-11-13T15:22:17;101966.75;;;12.39;100.00
31538;BME280;18147;51.952;6.146;2022-11-13T15:25:02;101966.75;;;12.39;100.00
31538;BME280;18147;51.952;6.146;2022-11-13T15:27:46;101961.28;;;12.08;100.00
31538;BME280;18147;51.952;6.146;2022-11-13T15:30:31;101958.03;;;11.66;100.00
31538;BME280;18147;51.952;6.146;2022-11-13T15:33:15;101961.13;;;11.40;100.00
31538;BME280;18147;51.952;6.146;2022-11-13T15:36:00;101952.22;;;11.39;100.00
31538;BME280;18147;51.952;6.146;2022-11-13T15:38:44;101952.47;;;11.35;100.00
31538;BME280;18147;51.952;6.146;2022-11-13T15:41:28;101949.38;;;11.25;100.00
31538;BME280;18147;51.952;6.146;2022-11-13T15:44:13;101949.72;;;11.18;100.00
31538;BME280;18147;51.952;6.146;2022-11-13T15:46:58;101947.38;;;10.93;100.00
31538;BME280;18147;51.952;6.146;2022-11-13T15:49:42;101946.72;;;10.87;100.00
31538;BME280;18147;51.952;6.146;2022-11-13T15:52:28;101951.81;;;10.73;100.00
31538;BME280;18147;51.952;6.146;2022-11-13T15:58:13;101939.63;;;10.28;100.00
31538;BME280;18147;51.952;6.146;2022-11-13T16:00:58;101935.97;;;9.90;100.00